createdAt,value
2018-07-10T00:02:12.618Z,11.67
2018-07-10T00:07:00.119Z,8.23
2018-07-10T00:09:45.379Z,7.77
2018-07-10T00:12:14.986Z,7.77
2018-07-10T00:14:44.014Z,9.00
2018-07-10T00:17:13.626Z,5.90
2018-07-10T00:19:43.189Z,7.50
2018-07-10T00:22:12.379Z,9.43
2018-07-10T00:24:41.694Z,10.63
2018-07-10T00:27:11.024Z,10.70
2018-07-10T00:29:40.264Z,11.93
2018-07-10T00:32:09.352Z,18.10
2018-07-10T00:34:38.538Z,16.87
2018-07-10T00:37:08.014Z,12.33
2018-07-10T00:39:37.258Z,10.00
2018-07-10T00:42:06.442Z,8.50
2018-07-10T00:44:35.791Z,9.90
2018-07-10T00:47:04.942Z,15.13
2018-07-10T00:49:34.524Z,8.17
2018-07-10T00:52:03.758Z,11.17
2018-07-10T00:54:32.902Z,10.97
2018-07-10T00:57:02.126Z,10.37
2018-07-10T00:59:31.327Z,12.17
2018-07-10T01:02:00.599Z,16.03
2018-07-10T01:04:30.163Z,16.97
2018-07-10T01:06:59.545Z,12.63
2018-07-10T01:09:28.701Z,7.80
2018-07-10T01:11:57.930Z,11.47
2018-07-10T01:14:27.201Z,18.03
2018-07-10T01:16:56.499Z,9.17
2018-07-10T01:19:25.713Z,11.33
2018-07-10T01:21:54.850Z,13.87
2018-07-10T01:24:23.968Z,12.33
2018-07-10T01:26:53.360Z,15.13
2018-07-10T01:29:27.630Z,10.80
2018-07-10T01:31:56.914Z,11.63
2018-07-10T01:34:26.074Z,12.00
2018-07-10T01:36:55.664Z,9.30
2018-07-10T01:39:24.822Z,9.60
2018-07-10T01:41:54.066Z,18.40
2018-07-10T01:44:23.487Z,14.93
2018-07-10T01:46:52.557Z,8.27
2018-07-10T01:49:21.738Z,10.67
2018-07-10T01:51:51.002Z,11.90
2018-07-10T01:54:20.261Z,14.53
2018-07-10T01:56:49.468Z,15.57
2018-07-10T01:59:18.679Z,14.03
2018-07-10T02:01:47.882Z,13.53
2018-07-10T02:04:18.105Z,13.17
2018-07-10T02:06:47.334Z,11.03
2018-07-10T02:09:16.478Z,10.93
2018-07-10T02:11:45.690Z,13.33
2018-07-10T02:14:15.021Z,12.53
2018-07-10T02:16:44.184Z,11.73
2018-07-10T02:19:13.347Z,10.20
2018-07-10T02:21:42.570Z,15.33
2018-07-10T02:24:12.024Z,23.33
2018-07-10T02:26:41.303Z,15.53
2018-07-10T02:29:10.980Z,9.33
2018-07-10T02:31:40.113Z,12.93
2018-07-10T02:34:09.233Z,17.83
2018-07-10T02:36:38.462Z,10.33
2018-07-10T02:39:07.793Z,10.13
2018-07-10T02:41:37.045Z,21.07
2018-07-10T02:44:06.654Z,13.37
2018-07-10T02:46:37.487Z,17.23
2018-07-10T02:49:22.997Z,12.87
2018-07-10T02:52:07.622Z,17.83
2018-07-10T02:54:40.714Z,10.97
2018-07-10T02:57:11.661Z,8.90
2018-07-10T02:59:42.261Z,11.77
2018-07-10T03:02:25.173Z,6.70
2018-07-10T03:05:02.393Z,17.20
2018-07-10T03:07:32.106Z,8.50
2018-07-10T03:10:01.776Z,9.10
2018-07-10T03:12:32.613Z,10.43
2018-07-10T03:15:07.758Z,14.53
2018-07-10T03:17:37.070Z,8.40
2018-07-10T03:20:07.087Z,7.03
2018-07-10T03:22:36.379Z,10.63
2018-07-10T03:25:05.803Z,12.70
2018-07-10T03:27:34.921Z,16.53
2018-07-10T03:30:04.271Z,17.67
2018-07-10T03:32:33.595Z,10.53
2018-07-10T03:35:03.215Z,10.67
2018-07-10T03:37:32.627Z,11.07
2018-07-10T03:40:02.128Z,12.20
2018-07-10T03:42:31.296Z,10.43
2018-07-10T03:45:00.352Z,10.27
2018-07-10T03:47:29.925Z,14.47
2018-07-10T03:49:59.195Z,10.10
2018-07-10T03:52:32.940Z,16.57
2018-07-10T03:55:11.378Z,13.23
2018-07-10T03:57:40.907Z,10.70
2018-07-10T04:03:18.432Z,11.87
2018-07-10T04:05:47.780Z,8.57
2018-07-10T04:08:17.083Z,19.90
2018-07-10T04:10:46.268Z,12.40
2018-07-10T04:13:18.721Z,18.63
2018-07-10T04:15:48.860Z,17.40
2018-07-10T04:18:21.448Z,20.53
2018-07-10T04:20:59.367Z,12.13
2018-07-10T04:23:33.722Z,28.27
2018-07-10T04:26:04.862Z,18.53
2018-07-10T04:28:35.410Z,16.90
2018-07-10T04:31:43.608Z,17.03
2018-07-10T04:34:12.839Z,14.30
2018-07-10T04:36:42.107Z,14.40
2018-07-10T04:39:11.245Z,13.33
2018-07-10T04:41:42.685Z,13.70
2018-07-10T04:44:13.539Z,13.03
2018-07-10T04:46:46.788Z,11.00
2018-07-10T04:51:43.143Z,18.43
2018-07-10T04:54:23.342Z,10.73
2018-07-10T04:57:01.811Z,12.33
2018-07-10T04:59:33.957Z,20.23
2018-07-10T05:02:03.671Z,13.93
2018-07-10T05:04:32.739Z,20.23
2018-07-10T05:07:06.451Z,43.33
2018-07-10T05:09:36.714Z,117.13
2018-07-10T05:12:06.848Z,104.40
2018-07-10T05:14:36.239Z,20.47
2018-07-10T05:17:05.553Z,12.37
2018-07-10T05:19:34.734Z,17.37
2018-07-10T05:22:03.890Z,19.33
2018-07-10T05:24:33.388Z,11.13
2018-07-10T05:27:02.574Z,15.47
2018-07-10T05:29:31.785Z,10.27
2018-07-10T05:32:00.967Z,13.50
2018-07-10T05:34:30.255Z,8.87
2018-07-10T05:36:59.484Z,15.73
2018-07-10T05:39:29.899Z,10.33
2018-07-10T05:41:58.916Z,11.63
2018-07-10T05:44:28.281Z,19.83
2018-07-10T05:47:02.939Z,9.13
2018-07-10T05:49:38.543Z,18.80
2018-07-10T05:52:07.685Z,18.40
2018-07-10T05:54:38.443Z,19.23
2018-07-10T05:57:08.153Z,19.60
2018-07-10T05:59:37.321Z,18.77
2018-07-10T06:02:06.531Z,9.83
2018-07-10T06:04:36.387Z,12.70
2018-07-10T06:07:05.491Z,14.40
2018-07-10T06:09:34.611Z,18.53
2018-07-10T06:12:04.874Z,15.60
2018-07-10T06:14:34.101Z,16.70
2018-07-10T06:17:03.425Z,18.57
2018-07-10T06:19:32.799Z,20.43
2018-07-10T06:22:01.927Z,20.50
2018-07-10T06:24:31.074Z,8.13
2018-07-10T06:27:01.758Z,13.93
2018-07-10T06:29:56.122Z,16.33
2018-07-10T06:32:25.723Z,11.53
2018-07-10T06:35:07.429Z,10.00
2018-07-10T06:37:41.675Z,19.33
2018-07-10T06:40:10.920Z,13.00
2018-07-10T06:43:22.179Z,15.03
2018-07-10T06:45:51.883Z,17.27
2018-07-10T06:48:21.925Z,16.17
2018-07-10T06:50:51.418Z,17.00
2018-07-10T06:53:23.078Z,13.40
2018-07-10T06:55:56.542Z,7.80
2018-07-10T06:58:26.080Z,16.87
2018-07-10T07:00:56.375Z,15.00
2018-07-10T07:03:26.425Z,11.30
2018-07-10T07:05:55.770Z,7.67
2018-07-10T07:08:25.047Z,12.73
2018-07-10T07:10:54.372Z,13.93
2018-07-10T07:13:23.913Z,15.23
2018-07-10T07:15:53.154Z,10.60
2018-07-10T07:18:22.402Z,14.00
2018-07-10T07:20:51.596Z,9.40
2018-07-10T07:23:20.814Z,18.63
2018-07-10T07:25:49.939Z,18.50
2018-07-10T07:28:19.254Z,8.60
2018-07-10T07:30:48.437Z,12.03
2018-07-10T07:33:17.596Z,12.60
2018-07-10T07:35:46.631Z,15.60
2018-07-10T07:38:17.012Z,12.43
2018-07-10T07:40:46.462Z,17.47
2018-07-10T07:43:15.618Z,15.30
2018-07-10T07:45:45.183Z,16.57
2018-07-10T07:48:14.219Z,8.23
2018-07-10T07:50:43.463Z,11.10
2018-07-10T07:53:12.627Z,9.13
2018-07-10T07:55:43.037Z,15.07
2018-07-10T07:58:12.277Z,9.43
2018-07-10T08:00:41.519Z,14.27
2018-07-10T08:03:10.594Z,12.57
2018-07-10T08:05:39.782Z,8.90
2018-07-10T08:08:09.071Z,11.07
2018-07-10T08:10:38.397Z,19.73
2018-07-10T08:13:07.660Z,22.57
2018-07-10T08:15:37.139Z,14.80
2018-07-10T08:18:06.286Z,10.70
2018-07-10T08:20:35.486Z,12.50
2018-07-10T08:23:04.673Z,12.00
2018-07-10T08:25:33.701Z,14.40
2018-07-10T08:28:02.966Z,11.67
2018-07-10T08:30:32.321Z,14.20
2018-07-10T08:33:01.672Z,10.97
2018-07-10T08:35:30.988Z,11.23
2018-07-10T08:38:00.142Z,9.77
2018-07-10T08:40:29.562Z,7.40
2018-07-10T08:42:59.442Z,13.37
2018-07-10T08:45:28.699Z,8.83
2018-07-10T08:48:00.619Z,13.10
2018-07-10T08:50:30.159Z,6.80
2018-07-10T08:52:59.318Z,7.30
2018-07-10T08:55:28.650Z,13.90
2018-07-10T08:57:57.734Z,22.17
2018-07-10T09:00:27.059Z,13.47
2018-07-10T09:02:56.162Z,13.30
2018-07-10T09:05:25.441Z,10.63
2018-07-10T09:07:54.728Z,14.10
2018-07-10T09:10:23.851Z,11.23
2018-07-10T09:12:53.435Z,11.50
2018-07-10T09:15:22.627Z,14.37
2018-07-10T09:17:51.893Z,19.73
2018-07-10T09:20:27.470Z,11.00
2018-07-10T09:22:56.586Z,8.00
2018-07-10T09:25:25.690Z,9.43
2018-07-10T09:27:55.895Z,8.53
2018-07-10T09:30:25.165Z,8.20
2018-07-10T09:32:54.475Z,7.80
2018-07-10T09:35:23.718Z,13.90
2018-07-10T09:37:53.314Z,8.00
2018-07-10T09:40:23.298Z,17.83
2018-07-10T09:42:58.739Z,7.90
2018-07-10T09:45:32.511Z,7.37
2018-07-10T09:48:02.683Z,14.57
2018-07-10T09:50:31.907Z,11.70
2018-07-10T09:53:02.041Z,10.97
2018-07-10T09:55:31.746Z,21.70
2018-07-10T09:58:01.586Z,13.30
2018-07-10T10:00:36.076Z,8.90
2018-07-10T10:03:05.323Z,9.83
2018-07-10T10:05:40.419Z,10.13
2018-07-10T10:08:09.682Z,11.20
2018-07-10T10:10:39.099Z,12.07
2018-07-10T10:13:08.345Z,6.80
2018-07-10T10:15:38.098Z,15.47
2018-07-10T10:18:08.634Z,14.70
2018-07-10T10:20:40.326Z,5.43
2018-07-10T10:23:13.650Z,8.87
2018-07-10T10:25:49.651Z,14.23
2018-07-10T10:28:19.662Z,12.43
2018-07-10T10:30:49.055Z,10.20
2018-07-10T10:33:18.438Z,8.80
2018-07-10T10:35:47.684Z,6.50
2018-07-10T10:38:17.515Z,10.70
2018-07-10T10:40:47.795Z,11.43
2018-07-10T10:43:17.002Z,13.90
2018-07-10T10:45:46.407Z,15.30
2018-07-10T10:48:16.056Z,10.20
2018-07-10T10:50:48.893Z,14.80
2018-07-10T10:53:19.090Z,11.67
2018-07-10T10:55:48.362Z,9.60
2018-07-10T10:58:18.139Z,12.93
2018-07-10T11:00:47.435Z,7.43
2018-07-10T11:03:16.790Z,8.57
2018-07-10T11:05:46.346Z,16.67
2018-07-10T11:08:15.682Z,11.77
2018-07-10T11:10:45.874Z,8.03
2018-07-10T11:13:15.853Z,9.90
2018-07-10T11:15:46.282Z,10.90
2018-07-10T11:18:32.665Z,19.43
2018-07-10T11:21:13.014Z,10.13
2018-07-10T11:24:04.163Z,13.97
2018-07-10T11:26:38.198Z,15.53
2018-07-10T11:29:07.896Z,13.87
2018-07-10T11:31:37.803Z,13.17
2018-07-10T11:34:07.527Z,15.17
2018-07-10T11:36:37.240Z,19.70
2018-07-10T11:39:10.891Z,12.67
2018-07-10T11:41:46.594Z,17.93
2018-07-10T11:44:18.656Z,15.43
2018-07-10T11:46:48.375Z,15.43
2018-07-10T11:49:17.899Z,11.17
2018-07-10T11:51:47.487Z,12.73
2018-07-10T11:54:17.538Z,7.73
2018-07-10T11:56:46.673Z,10.10
2018-07-10T11:59:15.786Z,13.43
2018-07-10T12:01:45.264Z,15.80
2018-07-10T12:04:14.558Z,11.87
2018-07-10T12:06:50.110Z,10.33
2018-07-10T12:10:30.134Z,12.17
2018-07-10T12:12:59.367Z,12.03
2018-07-10T12:15:28.943Z,7.50
2018-07-10T12:17:58.886Z,10.30
2018-07-10T12:20:35.396Z,8.13
2018-07-10T12:23:05.436Z,8.63
2018-07-10T12:25:37.780Z,13.57
2018-07-10T12:28:08.049Z,13.33
2018-07-10T12:30:37.328Z,18.40
2018-07-10T12:33:07.028Z,12.77
2018-07-10T12:35:36.113Z,11.50
2018-07-10T12:38:05.415Z,8.17
2018-07-10T12:40:35.060Z,11.03
2018-07-10T12:43:04.388Z,13.80
2018-07-10T12:45:33.519Z,12.90
2018-07-10T12:48:02.711Z,17.97
2018-07-10T12:50:31.930Z,9.90
2018-07-10T12:53:01.204Z,11.07
2018-07-10T12:55:30.448Z,9.13
2018-07-10T12:57:59.832Z,14.83
2018-07-10T13:00:31.056Z,11.23
2018-07-10T13:03:01.287Z,10.77
2018-07-10T13:05:32.371Z,8.90
2018-07-10T13:08:01.521Z,11.10
2018-07-10T13:10:30.710Z,9.80
2018-07-10T13:12:59.766Z,11.90
2018-07-10T13:15:29.031Z,13.50
2018-07-10T13:17:58.881Z,8.80
2018-07-10T13:20:28.171Z,12.73
2018-07-10T13:22:57.438Z,14.57
2018-07-10T13:25:26.576Z,15.47
2018-07-10T13:27:55.901Z,14.40
2018-07-10T13:30:25.051Z,11.33
2018-07-10T13:32:54.200Z,15.10
2018-07-10T13:35:23.412Z,13.87
2018-07-10T13:37:52.796Z,10.03
2018-07-10T13:40:22.149Z,9.37
2018-07-10T13:42:56.522Z,21.00
2018-07-10T13:45:26.631Z,16.33
2018-07-10T13:47:56.011Z,11.83
2018-07-10T13:50:29.082Z,12.13
2018-07-10T13:53:00.526Z,11.33
2018-07-10T13:55:32.092Z,11.27
2018-07-10T13:58:09.079Z,11.30
2018-07-10T14:00:41.950Z,16.97
2018-07-10T14:03:13.174Z,10.83
2018-07-10T14:05:46.451Z,15.20
2018-07-10T14:08:19.659Z,10.53
2018-07-10T14:10:53.224Z,8.73
2018-07-10T14:13:24.093Z,8.83
2018-07-10T14:15:53.607Z,8.37
2018-07-10T14:18:23.570Z,11.43
2018-07-10T14:20:55.224Z,6.90
2018-07-10T14:23:24.364Z,7.87
2018-07-10T14:25:53.684Z,9.47
2018-07-10T14:28:23.033Z,9.77
2018-07-10T14:30:52.267Z,13.77
2018-07-10T14:33:22.035Z,8.63
2018-07-10T14:35:51.247Z,8.17
2018-07-10T14:38:24.221Z,6.77
2018-07-10T14:40:53.641Z,6.23
2018-07-10T14:43:56.298Z,12.50
2018-07-10T14:46:26.495Z,10.63
2018-07-10T14:48:57.984Z,7.47
2018-07-10T14:51:45.132Z,9.43
2018-07-10T14:54:14.188Z,9.50
2018-07-10T14:56:43.464Z,12.10
2018-07-10T14:59:13.073Z,9.73
2018-07-10T15:01:42.587Z,14.63
2018-07-10T15:04:11.901Z,7.97
2018-07-10T15:06:41.246Z,13.50
2018-07-10T15:09:11.440Z,7.57
2018-07-10T15:11:41.620Z,10.60
2018-07-10T15:14:11.900Z,12.43
2018-07-10T15:16:46.538Z,9.60
2018-07-10T15:19:16.495Z,8.63
2018-07-10T15:21:45.518Z,9.20
2018-07-10T15:24:15.130Z,7.03
2018-07-10T15:26:47.798Z,9.90
2018-07-10T15:29:24.929Z,11.20
2018-07-10T15:31:54.520Z,13.47
2018-07-10T15:34:23.694Z,7.37
2018-07-10T15:36:53.134Z,8.27
2018-07-10T15:39:22.835Z,5.00
2018-07-10T15:41:52.646Z,8.23
2018-07-10T15:44:21.890Z,6.77
2018-07-10T15:46:51.182Z,8.00
2018-07-10T15:49:20.409Z,9.20
2018-07-10T15:51:49.935Z,12.93
2018-07-10T15:54:19.023Z,11.40
2018-07-10T15:56:48.458Z,6.30
2018-07-10T15:59:17.683Z,8.20
2018-07-10T16:01:47.407Z,11.77
2018-07-10T16:04:16.551Z,9.20
2018-07-10T16:06:45.649Z,8.90
2018-07-10T16:09:21.088Z,7.43
2018-07-10T16:11:58.750Z,13.47
2018-07-10T16:14:28.873Z,8.00
2018-07-10T16:16:58.448Z,8.60
2018-07-10T16:19:34.751Z,9.47
2018-07-10T16:22:11.366Z,9.00
2018-07-10T16:24:47.483Z,7.00
2018-07-10T16:27:20.685Z,9.87
2018-07-10T16:29:49.807Z,8.60
2018-07-10T16:32:18.799Z,8.17
2018-07-10T16:34:47.750Z,15.93
2018-07-10T16:37:17.551Z,9.43
2018-07-10T16:39:50.206Z,5.83
2018-07-10T16:42:25.632Z,11.70
2018-07-10T16:44:55.082Z,15.07
2018-07-10T16:47:30.619Z,9.33
2018-07-10T16:50:03.463Z,8.63
2018-07-10T16:52:40.672Z,10.67
2018-07-10T16:55:10.383Z,8.20
2018-07-10T16:57:39.591Z,12.50
2018-07-10T17:00:09.397Z,4.90
2018-07-10T17:02:38.870Z,11.57
2018-07-10T17:05:17.017Z,10.80
2018-07-10T17:07:46.274Z,10.73
2018-07-10T17:10:16.193Z,8.73
2018-07-10T17:12:45.639Z,5.40
2018-07-10T17:15:14.752Z,10.63
2018-07-10T17:17:43.858Z,10.73
2018-07-10T17:20:14.296Z,7.07
2018-07-10T17:22:44.012Z,8.43
2018-07-10T17:25:14.336Z,12.23
2018-07-10T17:27:49.363Z,8.47
2018-07-10T17:30:19.463Z,8.00
2018-07-10T17:32:48.870Z,8.63
2018-07-10T17:35:19.369Z,8.23
2018-07-10T17:37:50.234Z,6.83
2018-07-10T17:40:22.342Z,7.30
2018-07-10T17:42:52.633Z,6.43
2018-07-10T17:45:23.843Z,6.80
2018-07-10T17:47:53.395Z,4.23
2018-07-10T17:50:23.266Z,14.10
2018-07-10T17:52:52.500Z,8.53
2018-07-10T17:55:22.055Z,12.77
2018-07-10T17:57:55.105Z,12.43
2018-07-10T18:00:24.390Z,8.73
2018-07-10T18:02:53.704Z,7.20
2018-07-10T18:05:28.266Z,5.13
2018-07-10T18:07:57.515Z,8.17
2018-07-10T18:10:26.823Z,4.03
2018-07-10T18:12:56.199Z,5.43
2018-07-10T18:15:25.577Z,4.77
2018-07-10T18:17:54.978Z,5.60
2018-07-10T18:20:25.248Z,5.07
2018-07-10T18:22:54.392Z,5.80
2018-07-10T18:25:23.846Z,7.10
2018-07-10T18:27:53.031Z,12.20
2018-07-10T18:30:23.428Z,5.17
2018-07-10T18:32:55.624Z,4.73
2018-07-10T18:35:28.259Z,8.63
2018-07-10T18:37:57.803Z,7.87
2018-07-10T18:40:28.060Z,7.50
2018-07-10T18:42:58.413Z,4.20
2018-07-10T18:45:32.376Z,5.17
2018-07-10T18:48:01.756Z,7.17
2018-07-10T18:50:31.731Z,7.27
2018-07-10T18:53:01.665Z,9.20
2018-07-10T18:55:30.818Z,8.83
2018-07-10T18:58:06.476Z,4.47
2018-07-10T19:00:51.733Z,3.93
2018-07-10T19:03:21.149Z,6.63
2018-07-10T19:05:54.068Z,5.43
2018-07-10T19:08:23.317Z,7.60
2018-07-10T19:10:53.248Z,9.43
2018-07-10T19:13:22.671Z,9.03
2018-07-10T19:15:53.351Z,7.47
2018-07-10T19:18:22.886Z,4.60
2018-07-10T19:20:58.742Z,7.00
2018-07-10T19:23:36.225Z,10.23
2018-07-10T19:26:06.620Z,5.07
2018-07-10T19:28:36.192Z,8.27
2018-07-10T19:31:12.210Z,6.70
2018-07-10T19:33:43.927Z,4.33
2018-07-10T19:36:13.363Z,6.77
2018-07-10T19:38:42.630Z,6.00
2018-07-10T19:41:11.779Z,4.13
2018-07-10T19:43:40.962Z,6.73
2018-07-10T19:46:10.943Z,3.10
2018-07-10T19:48:40.165Z,6.93
2018-07-10T19:51:10.663Z,6.33
2018-07-10T19:53:39.843Z,11.33
2018-07-10T19:56:08.957Z,5.97
2018-07-10T19:58:42.433Z,5.43
2018-07-10T20:01:23.813Z,3.63
2018-07-10T20:04:02.937Z,7.73
2018-07-10T20:06:38.811Z,4.80
2018-07-10T20:09:13.712Z,7.30
2018-07-10T20:11:59.759Z,8.60
2018-07-10T20:14:31.159Z,5.53
2018-07-10T20:17:09.315Z,8.80
2018-07-10T20:19:42.901Z,6.97
2018-07-10T20:22:24.371Z,8.73
2018-07-10T20:25:07.686Z,5.00
2018-07-10T20:27:44.417Z,5.27
2018-07-10T20:30:24.761Z,9.03
2018-07-10T20:33:17.892Z,10.00
2018-07-10T20:35:50.282Z,5.83
2018-07-10T20:38:20.264Z,16.43
2018-07-10T20:40:49.508Z,12.67
2018-07-10T20:43:21.657Z,10.07
2018-07-10T20:45:52.662Z,5.13
2018-07-10T20:48:40.638Z,7.00
2018-07-10T20:51:11.151Z,6.20
2018-07-10T20:54:19.988Z,5.80
2018-07-10T20:57:29.400Z,4.93
2018-07-10T21:00:10.635Z,7.20
2018-07-10T21:03:23.821Z,9.57
2018-07-10T21:06:08.478Z,7.23
2018-07-10T21:08:44.991Z,5.77
2018-07-10T21:11:18.532Z,11.67
2018-07-10T21:13:55.026Z,10.30
2018-07-10T21:17:14.075Z,10.80
2018-07-10T21:20:00.851Z,10.10
2018-07-10T21:23:05.458Z,9.97
2018-07-10T21:25:41.118Z,6.27
2018-07-10T21:28:19.211Z,6.07
2018-07-10T21:31:13.005Z,5.77
2018-07-10T21:33:52.420Z,7.63
2018-07-10T21:36:28.901Z,6.17
2018-07-10T21:39:07.476Z,6.77
2018-07-10T21:41:47.575Z,11.83
2018-07-10T21:44:31.193Z,8.57
2018-07-10T21:47:05.561Z,7.40
2018-07-10T21:49:44.652Z,7.97
2018-07-10T21:52:14.441Z,7.77
2018-07-10T21:54:43.536Z,7.50
2018-07-10T21:57:14.070Z,7.60
2018-07-10T21:59:52.386Z,7.53
2018-07-10T22:02:21.749Z,6.53
2018-07-10T22:04:54.615Z,6.53
2018-07-10T22:07:26.220Z,6.50
2018-07-10T22:09:58.812Z,12.33
2018-07-10T22:12:29.556Z,11.43
2018-07-10T22:15:01.151Z,6.10
2018-07-10T22:17:32.611Z,12.20
2018-07-10T22:20:02.221Z,11.40
2018-07-10T22:22:32.518Z,9.00
2018-07-10T22:25:04.102Z,8.67
2018-07-10T22:27:33.244Z,11.17
2018-07-10T22:30:07.566Z,5.97
2018-07-10T22:32:44.976Z,8.67
2018-07-10T22:35:15.465Z,7.33
2018-07-10T22:37:44.678Z,9.80
2018-07-10T22:40:13.920Z,10.63
2018-07-10T22:42:42.960Z,13.43
2018-07-10T22:45:12.186Z,9.83
2018-07-10T22:47:42.183Z,16.93
2018-07-10T22:50:27.546Z,8.77
2018-07-10T22:53:00.527Z,9.03
2018-07-10T22:55:31.650Z,8.40
2018-07-10T22:58:09.529Z,18.60
2018-07-10T23:00:40.587Z,10.70
2018-07-10T23:03:18.464Z,15.63
2018-07-10T23:05:48.426Z,11.77
2018-07-10T23:08:21.187Z,8.30
2018-07-10T23:10:50.631Z,11.90
2018-07-10T23:13:20.226Z,6.30
2018-07-10T23:15:50.315Z,10.30
2018-07-10T23:18:20.069Z,7.30
2018-07-10T23:20:49.397Z,11.43
2018-07-10T23:23:19.515Z,9.83
2018-07-10T23:25:48.941Z,14.60
2018-07-10T23:28:18.310Z,13.47
2018-07-10T23:30:47.422Z,13.10
2018-07-10T23:33:17.970Z,16.50
2018-07-10T23:35:54.544Z,12.20
2018-07-10T23:38:39.584Z,9.87
2018-07-10T23:41:14.158Z,11.83
2018-07-10T23:43:46.555Z,14.40
2018-07-10T23:46:24.614Z,10.53
2018-07-10T23:48:55.827Z,11.50
2018-07-10T23:51:25.068Z,12.20
2018-07-10T23:53:55.128Z,11.97
2018-07-10T23:56:24.430Z,10.53
2018-07-10T23:58:53.834Z,10.13
